createdAt,value
2023-03-06T00:03:35.418Z,512.00
2023-03-06T00:07:35.353Z,510.00
2023-03-06T00:11:35.366Z,510.00
2023-03-06T00:15:35.402Z,513.00
2023-03-06T00:19:35.397Z,509.00
2023-03-06T00:23:35.395Z,509.00
2023-03-06T00:27:35.470Z,510.00
2023-03-06T00:31:35.507Z,506.00
2023-03-06T00:35:35.472Z,510.00
2023-03-06T00:39:35.791Z,514.00
2023-03-06T00:43:35.424Z,511.00
2023-03-06T00:47:35.428Z,513.00
2023-03-06T00:51:35.464Z,511.00
2023-03-06T00:55:35.476Z,512.00
2023-03-06T00:59:35.480Z,512.00
2023-03-06T01:03:35.472Z,511.00
2023-03-06T01:07:35.542Z,518.00
2023-03-06T01:11:35.498Z,511.00
2023-03-06T01:15:35.579Z,512.00
2023-03-06T01:19:35.593Z,510.00
2023-03-06T01:23:35.577Z,507.00
2023-03-06T01:27:35.583Z,509.00
2023-03-06T01:31:35.646Z,509.00
2023-03-06T01:35:35.738Z,509.00
2023-03-06T01:39:35.723Z,509.00
2023-03-06T01:43:35.788Z,507.00
2023-03-06T01:47:35.818Z,513.00
2023-03-06T01:51:35.843Z,508.00
2023-03-06T01:55:35.875Z,509.00
2023-03-06T01:59:35.904Z,514.00
2023-03-06T02:03:35.943Z,513.00
2023-03-06T02:07:35.973Z,515.00
2023-03-06T02:11:35.989Z,507.00
2023-03-06T02:15:35.998Z,510.00
2023-03-06T02:19:36.052Z,512.00
2023-03-06T02:23:36.068Z,510.00
2023-03-06T02:27:36.085Z,507.00
2023-03-06T02:31:36.121Z,507.00
2023-03-06T02:35:36.191Z,511.00
2023-03-06T02:39:36.176Z,510.00
2023-03-06T02:43:36.202Z,509.00
2023-03-06T02:47:36.232Z,510.00
2023-03-06T02:51:36.303Z,508.00
2023-03-06T02:55:36.358Z,509.00
2023-03-06T02:59:36.338Z,510.00
2023-03-06T03:03:36.370Z,511.00
2023-03-06T03:07:36.428Z,508.00
2023-03-06T03:11:36.495Z,509.00
2023-03-06T03:15:36.538Z,512.00
2023-03-06T03:19:36.557Z,506.00
2023-03-06T03:23:36.617Z,508.00
2023-03-06T03:27:36.669Z,509.00
2023-03-06T03:31:36.700Z,511.00
2023-03-06T03:35:36.795Z,506.00
2023-03-06T03:39:36.769Z,503.00
2023-03-06T03:43:36.833Z,503.00
2023-03-06T03:47:36.813Z,503.00
2023-03-06T03:51:36.879Z,503.00
2023-03-06T03:55:36.901Z,508.00
2023-03-06T03:59:36.888Z,504.00
2023-03-06T04:03:36.913Z,510.00
2023-03-06T04:07:36.977Z,505.00
2023-03-06T04:11:36.974Z,506.00
2023-03-06T04:15:37.004Z,505.00
2023-03-06T04:19:37.068Z,506.00
2023-03-06T04:23:37.092Z,506.00
2023-03-06T04:27:37.110Z,503.00
2023-03-06T04:31:37.218Z,506.00
2023-03-06T04:35:37.266Z,505.00
2023-03-06T04:39:37.268Z,506.00
2023-03-06T04:43:37.325Z,505.00
2023-03-06T04:47:37.419Z,505.00
2023-03-06T04:51:37.458Z,502.00
2023-03-06T04:55:37.445Z,505.00
2023-03-06T04:59:39.168Z,503.00
2023-03-06T05:03:37.489Z,501.00
2023-03-06T05:07:37.562Z,500.00
2023-03-06T05:11:37.527Z,502.00
2023-03-06T05:15:37.539Z,500.00
2023-03-06T05:19:37.580Z,500.00
2023-03-06T05:23:37.663Z,500.00
2023-03-06T05:27:37.677Z,504.00
2023-03-06T05:31:37.785Z,507.00
2023-03-06T05:35:37.871Z,502.00
2023-03-06T05:39:37.878Z,506.00
2023-03-06T05:43:37.941Z,502.00
2023-03-06T05:47:38.044Z,507.00
2023-03-06T05:51:38.100Z,509.00
2023-03-06T05:55:38.194Z,510.00
2023-03-06T05:59:38.221Z,512.00
2023-03-06T06:03:38.361Z,517.00
2023-03-06T06:07:38.321Z,517.00
2023-03-06T06:11:38.349Z,521.00
2023-03-06T06:15:38.403Z,514.00
2023-03-06T06:19:38.408Z,526.00
2023-03-06T06:23:38.474Z,521.00
2023-03-06T06:27:38.510Z,525.00
2023-03-06T06:31:38.509Z,527.00
2023-03-06T06:35:38.948Z,520.00
2023-03-06T06:39:38.949Z,529.00
2023-03-06T06:43:38.840Z,533.00
2023-03-06T06:47:38.959Z,545.00
2023-03-06T06:51:38.874Z,550.00
2023-03-06T06:55:38.898Z,558.00
2023-03-06T06:59:38.885Z,551.00
2023-03-06T07:03:38.990Z,561.00
2023-03-06T07:07:39.453Z,580.00
2023-03-06T07:11:39.458Z,628.00
2023-03-06T07:15:39.499Z,838.00
2023-03-06T07:19:39.635Z,892.00
2023-03-06T07:23:38.894Z,841.00
2023-03-06T07:27:38.981Z,789.00
2023-03-06T07:31:38.864Z,745.00
2023-03-06T07:35:38.948Z,723.00
2023-03-06T07:39:38.740Z,571.00
2023-03-06T07:43:38.744Z,606.00
2023-03-06T07:47:38.690Z,752.00
2023-03-06T07:51:38.671Z,862.00
2023-03-06T07:55:39.025Z,896.00
2023-03-06T07:59:38.967Z,947.00
2023-03-06T08:03:38.521Z,849.00
2023-03-06T08:07:38.544Z,918.00
2023-03-06T08:11:38.539Z,907.00
2023-03-06T08:15:38.677Z,902.00
2023-03-06T08:19:38.815Z,806.00
2023-03-06T08:23:38.914Z,867.00
2023-03-06T08:27:38.970Z,943.00
2023-03-06T08:31:39.598Z,895.00
2023-03-06T08:35:39.118Z,569.00
2023-03-06T08:39:39.501Z,588.00
2023-03-06T08:43:39.536Z,562.00
2023-03-06T08:47:39.690Z,550.00
2023-03-06T08:51:39.548Z,543.00
2023-03-06T08:55:39.322Z,531.00
2023-03-06T08:59:39.547Z,532.00
2023-03-06T09:03:39.241Z,534.00
2023-03-06T09:07:39.538Z,525.00
2023-03-06T09:11:39.171Z,515.00
2023-03-06T09:15:39.146Z,520.00
2023-03-06T09:19:39.063Z,521.00
2023-03-06T09:23:40.540Z,514.00
2023-03-06T09:27:39.630Z,520.00
2023-03-06T09:31:39.004Z,500.00
2023-03-06T09:35:38.921Z,512.00
2023-03-06T09:39:39.026Z,504.00
2023-03-06T09:43:39.039Z,515.00
2023-03-06T09:47:38.824Z,530.00
2023-03-06T09:51:39.055Z,526.00
2023-03-06T09:55:38.930Z,552.00
2023-03-06T09:59:39.066Z,558.00
2023-03-06T10:03:39.526Z,577.00
2023-03-06T10:07:39.142Z,573.00
2023-03-06T10:11:39.522Z,584.00
2023-03-06T10:15:39.587Z,592.00
2023-03-06T10:19:39.262Z,607.00
2023-03-06T10:23:39.222Z,610.00
2023-03-06T10:27:39.549Z,614.00
2023-03-06T10:31:39.579Z,619.00
2023-03-06T10:35:39.580Z,633.00
2023-03-06T10:39:39.099Z,622.00
2023-03-06T10:43:39.084Z,711.00
2023-03-06T10:47:39.009Z,935.00
2023-03-06T10:51:38.986Z,890.00
2023-03-06T10:55:38.941Z,1069.00
2023-03-06T10:59:38.945Z,1069.00
2023-03-06T11:03:38.864Z,1094.00
2023-03-06T11:07:38.817Z,1036.00
2023-03-06T11:11:46.419Z,978.00
2023-03-06T11:15:38.889Z,952.00
2023-03-06T11:19:38.728Z,862.00
2023-03-06T11:23:39.221Z,890.00
2023-03-06T11:27:39.112Z,814.00
2023-03-06T11:31:38.668Z,802.00
2023-03-06T11:35:38.645Z,749.00
2023-03-06T11:39:38.615Z,698.00
2023-03-06T11:43:38.568Z,670.00
2023-03-06T11:47:38.501Z,657.00
2023-03-06T11:51:38.448Z,644.00
2023-03-06T11:55:38.415Z,634.00
2023-03-06T11:59:38.332Z,632.00
2023-03-06T12:03:38.363Z,623.00
2023-03-06T12:07:38.273Z,611.00
2023-03-06T12:11:38.247Z,598.00
2023-03-06T12:15:38.207Z,601.00
2023-03-06T12:19:38.194Z,612.00
2023-03-06T12:23:39.134Z,604.00
2023-03-06T12:27:38.106Z,619.00
2023-03-06T12:31:38.083Z,617.00
2023-03-06T12:35:38.084Z,617.00
2023-03-06T12:39:38.075Z,617.00
2023-03-06T12:43:40.053Z,618.00
2023-03-06T12:47:38.129Z,621.00
2023-03-06T12:51:38.064Z,620.00
2023-03-06T12:55:38.052Z,622.00
2023-03-06T12:59:38.049Z,622.00
2023-03-06T13:03:38.041Z,624.00
2023-03-06T13:07:37.991Z,628.00
2023-03-06T13:11:38.073Z,626.00
2023-03-06T13:15:38.082Z,604.00
2023-03-06T13:19:38.121Z,598.00
2023-03-06T13:23:38.070Z,596.00
2023-03-06T13:27:38.030Z,594.00
2023-03-06T13:31:38.128Z,588.00
2023-03-06T13:35:38.010Z,581.00
2023-03-06T13:39:38.033Z,587.00
2023-03-06T13:43:37.983Z,588.00
2023-03-06T13:48:02.839Z,583.00
2023-03-06T13:51:39.009Z,585.00
2023-03-06T13:55:37.956Z,583.00
2023-03-06T13:59:37.932Z,575.00
2023-03-06T14:03:38.212Z,540.00
2023-03-06T14:07:37.827Z,593.00
2023-03-06T14:11:37.782Z,598.00
2023-03-06T14:15:37.828Z,608.00
2023-03-06T14:19:37.720Z,601.00
2023-03-06T14:23:37.697Z,602.00
2023-03-06T14:27:37.653Z,612.00
2023-03-06T14:31:37.706Z,603.00
2023-03-06T14:35:37.568Z,603.00
2023-03-06T14:39:37.566Z,617.00
2023-03-06T14:43:37.761Z,582.00
2023-03-06T14:47:37.746Z,587.00
2023-03-06T14:51:37.584Z,568.00
2023-03-06T14:55:37.555Z,565.00
2023-03-06T14:59:37.572Z,558.00
2023-03-06T15:03:37.644Z,552.00
2023-03-06T15:07:37.687Z,540.00
2023-03-06T15:11:38.117Z,554.00
2023-03-06T15:15:37.894Z,546.00
2023-03-06T15:19:37.963Z,549.00
2023-03-06T15:23:38.106Z,547.00
2023-03-06T15:27:38.185Z,558.00
2023-03-06T15:31:38.317Z,555.00
2023-03-06T15:35:38.514Z,563.00
2023-03-06T15:39:38.564Z,564.00
2023-03-06T15:43:38.533Z,573.00
2023-03-06T15:47:38.625Z,572.00
2023-03-06T15:51:38.655Z,573.00
2023-03-06T15:55:38.783Z,572.00
2023-03-06T15:59:38.800Z,579.00
2023-03-06T16:03:39.189Z,578.00
2023-03-06T16:07:38.995Z,580.00
2023-03-06T16:11:43.962Z,583.00
2023-03-06T16:15:40.058Z,576.00
2023-03-06T16:19:38.990Z,578.00
2023-03-06T16:23:38.965Z,579.00
2023-03-06T16:27:39.105Z,576.00
2023-03-06T16:31:39.212Z,578.00
2023-03-06T16:35:39.420Z,578.00
2023-03-06T16:39:39.495Z,585.00
2023-03-06T16:43:39.725Z,589.00
2023-03-06T16:47:39.856Z,584.00
2023-03-06T16:51:40.224Z,583.00
2023-03-06T16:55:40.256Z,585.00
2023-03-06T16:59:40.478Z,584.00
2023-03-06T17:03:40.392Z,591.00
2023-03-06T17:07:40.409Z,591.00
2023-03-06T17:11:40.336Z,583.00
2023-03-06T17:15:40.351Z,586.00
2023-03-06T17:19:40.245Z,588.00
2023-03-06T17:23:40.807Z,589.00
2023-03-06T17:27:40.207Z,580.00
2023-03-06T17:31:40.193Z,589.00
2023-03-06T17:35:40.284Z,583.00
2023-03-06T17:39:40.094Z,583.00
2023-03-06T17:43:40.059Z,586.00
2023-03-06T17:47:40.039Z,587.00
2023-03-06T17:51:39.995Z,581.00
2023-03-06T17:55:39.946Z,585.00
2023-03-06T17:59:39.922Z,582.00
2023-03-06T18:03:39.851Z,586.00
2023-03-06T18:07:39.880Z,589.00
2023-03-06T18:11:39.799Z,583.00
2023-03-06T18:15:39.745Z,592.00
2023-03-06T18:19:39.789Z,591.00
2023-03-06T18:23:39.684Z,591.00
2023-03-06T18:27:39.684Z,589.00
2023-03-06T18:31:39.789Z,594.00
2023-03-06T18:35:39.813Z,596.00
2023-03-06T18:39:39.808Z,615.00
2023-03-06T18:43:39.842Z,622.00
2023-03-06T18:47:39.892Z,608.00
2023-03-06T18:51:39.969Z,591.00
2023-03-06T18:55:40.084Z,578.00
2023-03-06T18:59:40.236Z,570.00
2023-03-06T19:03:40.428Z,561.00
2023-03-06T19:07:40.622Z,553.00
2023-03-06T19:11:40.820Z,548.00
2023-03-06T19:15:40.771Z,541.00
2023-03-06T19:19:40.722Z,548.00
2023-03-06T19:23:40.692Z,544.00
2023-03-06T19:27:40.819Z,542.00
2023-03-06T19:31:40.690Z,546.00
2023-03-06T19:35:40.645Z,544.00
2023-03-06T19:39:40.542Z,545.00
2023-03-06T19:43:40.525Z,548.00
2023-03-06T19:47:40.493Z,552.00
2023-03-06T19:51:40.481Z,548.00
2023-03-06T19:55:40.527Z,552.00
2023-03-06T19:59:40.668Z,552.00
2023-03-06T20:03:40.910Z,555.00
2023-03-06T20:07:41.051Z,554.00
2023-03-06T20:11:41.330Z,552.00
2023-03-06T20:15:41.599Z,549.00
2023-03-06T20:19:41.723Z,556.00
2023-03-06T20:23:41.720Z,550.00
2023-03-06T20:27:41.622Z,551.00
2023-03-06T20:31:41.859Z,553.00
2023-03-06T20:35:41.603Z,552.00
2023-03-06T20:39:41.544Z,559.00
2023-03-06T20:43:41.491Z,556.00
2023-03-06T20:47:41.456Z,553.00
2023-03-06T20:51:41.444Z,563.00
2023-03-06T20:55:41.410Z,563.00
2023-03-06T20:59:41.475Z,557.00
2023-03-06T21:03:41.682Z,562.00
2023-03-06T21:07:41.928Z,564.00
2023-03-06T21:11:41.838Z,561.00
2023-03-06T21:15:41.824Z,561.00
2023-03-06T21:19:41.878Z,564.00
2023-03-06T21:23:41.750Z,564.00
2023-03-06T21:27:41.701Z,567.00
2023-03-06T21:31:41.730Z,566.00
2023-03-06T21:35:41.662Z,563.00
2023-03-06T21:39:41.688Z,567.00
2023-03-06T21:43:41.589Z,562.00
2023-03-06T21:47:41.512Z,563.00
2023-03-06T21:51:41.459Z,566.00
2023-03-06T21:55:41.594Z,563.00
2023-03-06T21:59:41.640Z,570.00
2023-03-06T22:03:41.817Z,567.00
2023-03-06T22:07:41.954Z,569.00
2023-03-06T22:11:42.227Z,569.00
2023-03-06T22:15:42.240Z,563.00
2023-03-06T22:19:42.374Z,566.00
2023-03-06T22:23:42.538Z,567.00
2023-03-06T22:27:42.595Z,566.00
2023-03-06T22:31:42.663Z,560.00
2023-03-06T22:35:42.677Z,559.00
2023-03-06T22:39:42.653Z,561.00
2023-03-06T22:43:42.688Z,564.00
2023-03-06T22:47:42.665Z,560.00
2023-03-06T22:51:42.678Z,561.00
2023-03-06T22:55:42.645Z,560.00
2023-03-06T22:59:42.595Z,562.00
2023-03-06T23:03:42.619Z,559.00
2023-03-06T23:07:42.611Z,561.00
2023-03-06T23:11:42.581Z,556.00
2023-03-06T23:15:42.634Z,560.00
2023-03-06T23:19:42.563Z,556.00
2023-03-06T23:23:42.581Z,558.00
2023-03-06T23:27:42.587Z,556.00
2023-03-06T23:31:42.593Z,557.00
2023-03-06T23:35:42.699Z,556.00
2023-03-06T23:39:42.646Z,553.00
2023-03-06T23:43:42.594Z,554.00
2023-03-06T23:47:42.609Z,554.00
2023-03-06T23:51:42.642Z,556.00
2023-03-06T23:55:42.632Z,549.00
2023-03-06T23:59:42.637Z,551.00
